Sandown, New Hampshire
Current Conditions -  °F | °C
As of 7:53 AM on Sunday 23 Nov 2014 (Local Time) from KMHT Reporting Station
Broken Clouds Broken Clouds  
Wind Chill: 37°   Ceiling: 11000
Heat Index: 40°   Visibility: 10mi
Dew Point: 30°   Wind: 5mph
Humidity: 68%   Direction: 200°SSW
Pressure: 30.08"   Gusts: NA
Location:  42.93°N, 71.19°W
Report Text: KMHT 231253Z 20004KT 10SM BKN110 04/M01 A3008 RMK AO2 SLP201 T00441011
Loading
Personal Weather Stations






























Interactive Weather Map New forecast layout! Learn more

10-Day Weather Forecast

Advertisements
Track Severe Weather on mobile